Time;durP1;ratioP1;P1;durP2;ratioP2;P2;SDS_P1;SDS_P2;PMS_P1;PMS_P2;Temp;Humidity;BMP_temperature;BMP_pressure;BME280_temperature;BME280_humidity;BME280_pressure;Samples;Min_cycle;Max_cycle;Signal;HPM_P1;HPM_P2
2023/01/03 00:01:24;;;;;;;0.00;0.00;;;;;;;;;;5034406;28;20657;-80
2023/01/03 00:03:53;;;;;;;0.00;0.00;;;;;;;;;;5027796;28;20666;-79
2023/01/03 00:06:22;;;;;;;0.10;0.10;;;;;;;;;;5018924;28;20252;-81
2023/01/03 00:08:52;;;;;;;0.00;0.00;;;;;;;;;;5024139;28;20211;-81
2023/01/03 00:12:22;;;;;;;0.00;0.00;;;;;;;;;;5049707;28;20270;-81
2023/01/03 00:14:11;;;;;;;0.00;0.00;;;;;;;;;;5053705;28;20238;-81
2023/01/03 00:16:39;;;;;;;0.00;0.00;;;;;;;;;;5022773;28;20278;-81
2023/01/03 00:19:08;;;;;;;0.00;0.00;;;;;;;;;;5014451;28;20227;-81
2023/01/03 00:21:37;;;;;;;0.00;0.00;;;;;;;;;;5031244;28;20203;-81
2023/01/03 00:24:07;;;;;;;0.00;0.00;;;;;;;;;;5050669;28;20619;-82
2023/01/03 00:26:36;;;;;;;0.00;0.00;;;;;;;;;;5036636;28;20277;-81
2023/01/03 00:29:05;;;;;;;0.00;0.00;;;;;;;;;;5033665;28;20241;-81
2023/01/03 00:31:33;;;;;;;0.00;0.00;;;;;;;;;;5016809;28;20255;-81
2023/01/03 00:34:02;;;;;;;0.00;0.00;;;;;;;;;;5014068;28;20266;-80
2023/01/03 00:36:30;;;;;;;0.10;0.10;;;;;;;;;;5029951;28;20590;-82
2023/01/03 00:38:59;;;;;;;0.07;0.07;;;;;;;;;;5033477;28;20207;-82
2023/01/03 00:41:29;;;;;;;0.00;0.00;;;;;;;;;;5033403;28;20274;-82
2023/01/03 00:43:58;;;;;;;0.10;0.10;;;;;;;;;;5033528;28;20253;-82
2023/01/03 00:46:26;;;;;;;0.00;0.00;;;;;;;;;;5033371;28;20758;-82
2023/01/03 00:48:55;;;;;;;0.00;0.00;;;;;;;;;;5033850;28;20635;-81
2023/01/03 00:51:24;;;;;;;0.00;0.00;;;;;;;;;;5031239;28;20234;-82
2023/01/03 00:53:54;;;;;;;0.00;0.00;;;;;;;;;;5013662;28;20208;-81
2023/01/03 00:56:24;;;;;;;0.10;0.10;;;;;;;;;;5028440;28;20227;-81
2023/01/03 00:58:54;;;;;;;0.10;0.10;;;;;;;;;;5033559;28;20245;-81
2023/01/03 01:01:23;;;;;;;0.00;0.00;;;;;;;;;;5033195;28;20216;-81
2023/01/03 01:03:54;;;;;;;0.00;0.00;;;;;;;;;;5033156;28;20219;-81
2023/01/03 01:06:24;;;;;;;0.00;0.00;;;;;;;;;;5032962;28;20258;-81
2023/01/03 01:08:54;;;;;;;0.00;0.00;;;;;;;;;;5033029;28;20688;-81
2023/01/03 01:11:22;;;;;;;0.00;0.00;;;;;;;;;;5033136;28;20246;-82
2023/01/03 01:13:51;;;;;;;0.00;0.00;;;;;;;;;;5033327;28;20204;-82
2023/01/03 01:16:23;;;;;;;0.00;0.00;;;;;;;;;;5032509;28;20657;-81
2023/01/03 01:18:53;;;;;;;0.00;0.00;;;;;;;;;;5032556;28;20199;-81
2023/01/03 01:21:22;;;;;;;0.00;0.00;;;;;;;;;;5032562;28;20219;-81
2023/01/03 01:23:51;;;;;;;0.00;0.00;;;;;;;;;;5033057;28;20254;-81
2023/01/03 01:26:20;;;;;;;0.00;0.00;;;;;;;;;;5032313;28;20258;-81
2023/01/03 01:28:49;;;;;;;0.00;0.00;;;;;;;;;;5033132;28;20207;-82
2023/01/03 01:31:18;;;;;;;0.00;0.00;;;;;;;;;;5033321;28;20254;-81
2023/01/03 01:33:49;;;;;;;0.10;0.10;;;;;;;;;;5033117;28;20243;-82
2023/01/03 01:36:18;;;;;;;0.00;0.00;;;;;;;;;;5032817;28;20273;-82
2023/01/03 01:38:48;;;;;;;0.07;0.07;;;;;;;;;;5032810;28;20207;-81
2023/01/03 01:44:36;;;;;;;0.00;0.00;;;;;;;;;;5032882;28;20262;-82
2023/01/03 01:46:55;;;;;;;0.00;0.00;;;;;;;;;;5029078;28;20228;-81
2023/01/03 01:49:26;;;;;;;0.10;0.10;;;;;;;;;;5023994;28;20244;-82
2023/01/03 01:51:55;;;;;;;0.00;0.00;;;;;;;;;;5013458;28;20189;-81
2023/01/03 01:54:23;;;;;;;0.00;0.00;;;;;;;;;;5012928;28;20240;-82
2023/01/03 01:56:53;;;;;;;0.00;0.00;;;;;;;;;;5027179;28;20228;-82
2023/01/03 01:59:22;;;;;;;0.00;0.00;;;;;;;;;;5032761;28;20222;-81
2023/01/03 02:01:51;;;;;;;0.00;0.00;;;;;;;;;;5026937;28;20274;-82
2023/01/03 02:04:22;;;;;;;0.07;0.07;;;;;;;;;;5013081;28;20224;-82
2023/01/03 02:06:52;;;;;;;0.00;0.00;;;;;;;;;;5026195;28;20293;-82
2023/01/03 02:09:20;;;;;;;0.00;0.00;;;;;;;;;;5025447;28;20235;-82
2023/01/03 02:13:04;;;;;;;0.00;0.00;;;;;;;;;;5013004;28;20251;-82
2023/01/03 02:14:46;;;;;;;0.00;0.00;;;;;;;;;;5012881;28;20255;-82
2023/01/03 02:17:18;;;;;;;0.00;0.00;;;;;;;;;;5028843;28;20270;-82
2023/01/03 02:19:57;;;;;;;0.00;0.00;;;;;;;;;;5033300;28;20592;-82
2023/01/03 02:22:40;;;;;;;0.00;0.00;;;;;;;;;;5033030;28;20203;-81
2023/01/03 02:25:27;;;;;;;0.10;0.10;;;;;;;;;;5031695;28;20226;-80
2023/01/03 02:28:13;;;;;;;0.00;0.00;;;;;;;;;;5034090;28;20629;-82
2023/01/03 02:30:46;;;;;;;0.00;0.00;;;;;;;;;;5036205;28;20195;-81
2023/01/03 02:33:19;;;;;;;0.10;0.10;;;;;;;;;;5036020;28;20204;-82
2023/01/03 02:35:51;;;;;;;0.00;0.00;;;;;;;;;;5020853;28;20227;-81
2023/01/03 02:38:25;;;;;;;0.00;0.00;;;;;;;;;;5036283;28;20281;-82
2023/01/03 02:40:56;;;;;;;0.00;0.00;;;;;;;;;;5035915;28;20231;-82
2023/01/03 02:43:28;;;;;;;0.00;0.00;;;;;;;;;;5035818;28;20188;-81
2023/01/03 02:46:03;;;;;;;0.00;0.00;;;;;;;;;;5035872;28;20216;-81
2023/01/03 02:48:38;;;;;;;0.00;0.00;;;;;;;;;;5048540;28;20198;-81
2023/01/03 02:51:09;;;;;;;0.00;0.00;;;;;;;;;;5037271;28;20229;-81
2023/01/03 02:53:39;;;;;;;0.10;0.10;;;;;;;;;;5015576;28;20200;-80
2023/01/03 02:56:11;;;;;;;0.00;0.00;;;;;;;;;;5031702;28;20231;-81
2023/01/03 02:58:41;;;;;;;0.10;0.10;;;;;;;;;;5035513;28;20223;-81
2023/01/03 03:01:11;;;;;;;0.00;0.00;;;;;;;;;;5035275;28;20227;-81
2023/01/03 03:03:40;;;;;;;0.00;0.00;;;;;;;;;;5037125;28;20225;-81
2023/01/03 03:06:12;;;;;;;0.10;0.10;;;;;;;;;;5035703;28;20226;-82
2023/01/03 03:08:40;;;;;;;0.07;0.07;;;;;;;;;;5031837;28;20219;-81
2023/01/03 03:13:58;;;;;;;0.00;0.00;;;;;;;;;;5022092;28;20245;-81
2023/01/03 03:24:51;;;;;;;0.00;0.00;;;;;;;;;;5033433;28;20200;-82
2023/01/03 03:30:11;;;;;;;0.10;0.10;;;;;;;;;;5034552;28;20234;-82
2023/01/03 03:32:42;;;;;;;0.00;0.00;;;;;;;;;;5026139;28;20227;-81
2023/01/03 03:35:13;;;;;;;0.00;0.00;;;;;;;;;;5015387;28;20568;-82
2023/01/03 03:37:43;;;;;;;0.00;0.00;;;;;;;;;;5015102;28;20224;-81
2023/01/03 03:45:51;;;;;;;0.00;0.00;;;;;;;;;;5034545;28;20257;-82
2023/01/03 03:48:26;;;;;;;0.03;0.03;;;;;;;;;;5036440;28;20657;-82
2023/01/03 03:50:55;;;;;;;0.00;0.00;;;;;;;;;;5035751;28;20210;-82
2023/01/03 03:53:26;;;;;;;0.00;0.00;;;;;;;;;;5035184;28;20273;-82
2023/01/03 03:55:57;;;;;;;0.00;0.00;;;;;;;;;;5035960;28;20196;-82
2023/01/03 03:58:29;;;;;;;0.00;0.00;;;;;;;;;;5036642;28;20631;-79
2023/01/03 04:00:58;;;;;;;0.00;0.00;;;;;;;;;;5017563;28;20657;-82
2023/01/03 04:03:29;;;;;;;0.07;0.07;;;;;;;;;;5036597;28;20326;-82
2023/01/03 04:05:59;;;;;;;0.00;0.00;;;;;;;;;;5023715;28;20581;-82
2023/01/03 04:08:28;;;;;;;0.00;0.00;;;;;;;;;;5017993;28;20192;-82
2023/01/03 04:11:04;;;;;;;0.00;0.00;;;;;;;;;;5036379;28;20203;-82
2023/01/03 04:13:33;;;;;;;0.00;0.00;;;;;;;;;;5036570;28;20290;-82
2023/01/03 04:16:01;;;;;;;0.00;0.00;;;;;;;;;;5036581;28;20207;-82
2023/01/03 04:18:31;;;;;;;0.00;0.00;;;;;;;;;;5035528;28;20199;-80
2023/01/03 04:21:00;;;;;;;0.00;0.00;;;;;;;;;;5046172;28;20219;-82
2023/01/03 04:23:28;;;;;;;0.00;0.00;;;;;;;;;;5035115;28;20708;-82
2023/01/03 04:25:57;;;;;;;0.03;0.03;;;;;;;;;;5035299;28;20272;-82
2023/01/03 04:28:25;;;;;;;0.00;0.00;;;;;;;;;;5035270;28;20218;-82
2023/01/03 04:30:54;;;;;;;0.00;0.00;;;;;;;;;;5035567;28;20216;-81
2023/01/03 04:33:22;;;;;;;0.00;0.00;;;;;;;;;;5019710;28;20262;-82
2023/01/03 04:35:52;;;;;;;0.00;0.00;;;;;;;;;;5021964;28;20244;-82
2023/01/03 04:38:20;;;;;;;0.00;0.00;;;;;;;;;;5035742;28;20212;-82
2023/01/03 04:40:49;;;;;;;0.00;0.00;;;;;;;;;;5035193;28;20208;-82
2023/01/03 04:46:03;;;;;;;0.00;0.00;;;;;;;;;;5033543;28;20235;-80
2023/01/03 04:48:32;;;;;;;0.00;0.00;;;;;;;;;;5033837;28;20624;-81
2023/01/03 04:51:01;;;;;;;0.00;0.00;;;;;;;;;;5033016;28;20204;-81
2023/01/03 04:53:30;;;;;;;0.00;0.00;;;;;;;;;;5033947;28;20203;-80
2023/01/03 04:55:58;;;;;;;0.00;0.00;;;;;;;;;;5034001;28;20534;-81
2023/01/03 04:58:27;;;;;;;0.03;0.03;;;;;;;;;;5033720;28;20725;-81
2023/01/03 05:00:59;;;;;;;0.00;0.00;;;;;;;;;;5033681;28;20231;-81
2023/01/03 05:03:28;;;;;;;0.10;0.10;;;;;;;;;;5033168;28;20234;-81
2023/01/03 05:05:59;;;;;;;0.00;0.00;;;;;;;;;;5033367;28;20599;-80
2023/01/03 05:08:29;;;;;;;0.00;0.00;;;;;;;;;;5033548;28;20234;-80
2023/01/03 05:10:58;;;;;;;0.00;0.00;;;;;;;;;;5033497;28;20208;-80
2023/01/03 05:13:26;;;;;;;0.10;0.10;;;;;;;;;;5033134;28;20247;-80
2023/01/03 05:15:54;;;;;;;0.00;0.00;;;;;;;;;;5033150;28;20204;-81
2023/01/03 05:18:23;;;;;;;0.00;0.00;;;;;;;;;;5033091;28;20208;-79
2023/01/03 05:26:25;;;;;;;0.00;0.00;;;;;;;;;;5033289;28;20685;-80
2023/01/03 05:28:54;;;;;;;0.10;0.10;;;;;;;;;;5033106;28;20250;-80
2023/01/03 05:31:23;;;;;;;0.00;0.00;;;;;;;;;;5033005;28;20258;-80
2023/01/03 05:33:51;;;;;;;0.00;0.00;;;;;;;;;;5033347;28;20673;-80
2023/01/03 05:36:19;;;;;;;0.00;0.00;;;;;;;;;;5033511;28;20628;-81
2023/01/03 05:38:49;;;;;;;0.07;0.07;;;;;;;;;;5033234;28;20247;-79
2023/01/03 05:41:58;;;;;;;0.00;0.00;;;;;;;;;;5033186;28;20211;-80
2023/01/03 05:44:07;;;;;;;0.00;0.00;;;;;;;;;;5032825;28;20203;-80
2023/01/03 05:46:35;;;;;;;0.00;0.00;;;;;;;;;;5033044;28;20262;-80
2023/01/03 05:49:04;;;;;;;0.00;0.00;;;;;;;;;;5032892;28;20211;-79
2023/01/03 05:51:32;;;;;;;0.10;0.10;;;;;;;;;;5032729;28;20204;-80
2023/01/03 05:54:02;;;;;;;0.00;0.00;;;;;;;;;;5032967;28;20676;-80
2023/01/03 05:56:31;;;;;;;0.00;0.00;;;;;;;;;;5032695;28;20227;-80
2023/01/03 05:59:00;;;;;;;0.00;0.00;;;;;;;;;;5032812;28;20253;-79
2023/01/03 06:01:28;;;;;;;0.03;0.03;;;;;;;;;;5032962;28;20204;-79
2023/01/03 06:03:57;;;;;;;0.10;0.10;;;;;;;;;;5035701;28;20231;-80
2023/01/03 06:06:25;;;;;;;0.00;0.00;;;;;;;;;;5036398;28;20223;-80
2023/01/03 06:08:54;;;;;;;0.00;0.00;;;;;;;;;;5036416;28;20668;-80
2023/01/03 06:11:24;;;;;;;0.00;0.00;;;;;;;;;;5036386;28;20244;-80
2023/01/03 06:13:53;;;;;;;0.10;0.10;;;;;;;;;;5036256;28;20208;-79
2023/01/03 06:19:08;;;;;;;0.00;0.00;;;;;;;;;;5036230;28;20192;-80
2023/01/03 06:21:37;;;;;;;0.10;0.10;;;;;;;;;;5036535;28;20593;-80
2023/01/03 06:24:06;;;;;;;0.03;0.03;;;;;;;;;;5036240;28;20274;-80
2023/01/03 06:26:35;;;;;;;0.00;0.00;;;;;;;;;;5036645;28;20227;-80
2023/01/03 06:29:04;;;;;;;0.07;0.07;;;;;;;;;;5036140;28;20212;-79
2023/01/03 06:31:33;;;;;;;0.00;0.00;;;;;;;;;;5035858;28;20216;-79
2023/01/03 06:34:03;;;;;;;0.00;0.00;;;;;;;;;;5036189;28;20196;-80
2023/01/03 06:36:33;;;;;;;0.10;0.10;;;;;;;;;;5036114;28;20231;-79
2023/01/03 06:39:01;;;;;;;0.10;0.10;;;;;;;;;;5035740;28;20211;-80
2023/01/03 06:41:30;;;;;;;0.10;0.10;;;;;;;;;;5036129;28;20569;-80
2023/01/03 06:44:00;;;;;;;0.10;0.10;;;;;;;;;;5036335;28;20230;-80
2023/01/03 06:54:48;;;;;;;0.00;0.00;;;;;;;;;;5035897;28;20208;-79
2023/01/03 06:57:16;;;;;;;0.10;0.10;;;;;;;;;;5036039;28;20220;-78
2023/01/03 06:59:55;;;;;;;0.00;0.00;;;;;;;;;;5035956;28;20645;-79
2023/01/03 07:02:24;;;;;;;0.00;0.00;;;;;;;;;;5035549;28;20243;-77
2023/01/03 07:04:52;;;;;;;0.03;0.03;;;;;;;;;;5036218;28;20247;-77
2023/01/03 07:07:21;;;;;;;0.00;0.00;;;;;;;;;;5036241;28;20228;-77
2023/01/03 07:09:49;;;;;;;0.10;0.10;;;;;;;;;;5036002;28;20207;-77
2023/01/03 07:15:09;;;;;;;0.10;0.10;;;;;;;;;;5018270;28;20246;-77
2023/01/03 07:17:38;;;;;;;0.00;0.00;;;;;;;;;;5036058;28;20222;-77
2023/01/03 07:20:07;;;;;;;0.10;0.10;;;;;;;;;;5035750;28;20203;-77
2023/01/03 07:22:35;;;;;;;0.10;0.10;;;;;;;;;;5035228;28;20239;-77
2023/01/03 07:25:04;;;;;;;0.00;0.00;;;;;;;;;;5035668;28;20245;-77
2023/01/03 07:27:32;;;;;;;0.10;0.10;;;;;;;;;;5035261;28;20223;-77
2023/01/03 07:30:01;;;;;;;0.00;0.00;;;;;;;;;;5035768;28;20225;-77
2023/01/03 07:32:30;;;;;;;0.00;0.00;;;;;;;;;;5035086;28;20215;-77
2023/01/03 07:34:59;;;;;;;0.10;0.10;;;;;;;;;;5035096;28;20229;-77
2023/01/03 07:37:27;;;;;;;0.00;0.00;;;;;;;;;;5034807;28;20275;-77
2023/01/03 07:39:56;;;;;;;0.00;0.00;;;;;;;;;;5034920;28;20210;-77
2023/01/03 07:45:10;;;;;;;0.00;0.00;;;;;;;;;;5035030;28;20618;-77
2023/01/03 07:47:44;;;;;;;0.00;0.00;;;;;;;;;;5034882;28;20266;-77
2023/01/03 07:50:12;;;;;;;0.00;0.00;;;;;;;;;;5035009;28;20198;-77
2023/01/03 07:52:41;;;;;;;0.10;0.10;;;;;;;;;;5035007;28;20276;-77
2023/01/03 07:55:09;;;;;;;0.00;0.00;;;;;;;;;;5034856;28;20206;-77
2023/01/03 07:57:38;;;;;;;0.00;0.00;;;;;;;;;;5035047;28;20651;-77
2023/01/03 08:00:07;;;;;;;0.10;0.10;;;;;;;;;;5034888;28;20664;-77
2023/01/03 08:02:36;;;;;;;0.00;0.00;;;;;;;;;;5034601;28;20269;-77
2023/01/03 08:05:06;;;;;;;0.10;0.10;;;;;;;;;;5035089;28;20569;-77
2023/01/03 08:07:35;;;;;;;0.10;0.10;;;;;;;;;;5034679;28;20317;-77
2023/01/03 08:15:38;;;;;;;0.10;0.10;;;;;;;;;;5034735;28;20585;-77
2023/01/03 08:18:07;;;;;;;0.10;0.10;;;;;;;;;;5034509;28;20227;-77
2023/01/03 08:20:37;;;;;;;0.07;0.07;;;;;;;;;;5034252;28;20221;-77
2023/01/03 08:23:05;;;;;;;0.00;0.00;;;;;;;;;;5034588;28;20212;-77
2023/01/03 08:25:34;;;;;;;0.10;0.10;;;;;;;;;;5033387;28;20306;-77
2023/01/03 08:28:03;;;;;;;0.00;0.00;;;;;;;;;;5034186;28;20700;-77
2023/01/03 08:30:31;;;;;;;0.00;0.00;;;;;;;;;;5034123;28;20264;-77
2023/01/03 08:33:02;;;;;;;0.00;0.00;;;;;;;;;;5033955;28;20215;-77
2023/01/03 08:35:32;;;;;;;0.10;0.10;;;;;;;;;;5034284;28;20188;-77
2023/01/03 08:38:03;;;;;;;0.00;0.00;;;;;;;;;;5034005;28;20234;-77
2023/01/03 08:40:32;;;;;;;0.00;0.00;;;;;;;;;;5034146;28;20210;-77
2023/01/03 08:43:09;;;;;;;0.00;0.00;;;;;;;;;;5033833;28;20234;-77
2023/01/03 08:45:38;;;;;;;0.00;0.00;;;;;;;;;;5033803;28;20211;-77
2023/01/03 08:48:07;;;;;;;0.00;0.00;;;;;;;;;;5033719;28;20228;-77
2023/01/03 08:50:36;;;;;;;0.03;0.03;;;;;;;;;;5033775;28;20207;-77
2023/01/03 08:53:06;;;;;;;0.00;0.00;;;;;;;;;;5033673;28;20210;-77
2023/01/03 08:55:35;;;;;;;0.00;0.00;;;;;;;;;;5034088;28;20644;-77
2023/01/03 08:58:03;;;;;;;0.10;0.10;;;;;;;;;;5033283;28;20266;-77
2023/01/03 09:00:32;;;;;;;0.00;0.00;;;;;;;;;;5033943;28;20265;-77
2023/01/03 09:03:00;;;;;;;0.00;0.00;;;;;;;;;;5033698;28;20207;-77
2023/01/03 09:05:29;;;;;;;0.00;0.00;;;;;;;;;;5033548;28;20334;-77
2023/01/03 09:07:57;;;;;;;0.10;0.10;;;;;;;;;;5033757;28;20220;-77
2023/01/03 09:10:27;;;;;;;0.00;0.00;;;;;;;;;;5033938;28;20212;-77
2023/01/03 09:12:56;;;;;;;0.00;0.00;;;;;;;;;;5034212;28;20719;-77
2023/01/03 09:15:24;;;;;;;0.00;0.00;;;;;;;;;;5033919;28;20247;-77
2023/01/03 09:17:52;;;;;;;0.00;0.00;;;;;;;;;;5033829;28;20228;-77
2023/01/03 09:20:21;;;;;;;0.00;0.00;;;;;;;;;;5034066;28;20215;-77
2023/01/03 09:22:49;;;;;;;0.00;0.00;;;;;;;;;;5033645;28;20207;-77
2023/01/03 09:25:18;;;;;;;0.00;0.00;;;;;;;;;;5033732;28;20224;-77
2023/01/03 09:27:49;;;;;;;0.00;0.00;;;;;;;;;;5034136;28;20223;-77
2023/01/03 09:30:18;;;;;;;0.00;0.00;;;;;;;;;;5033405;28;20195;-77
2023/01/03 09:32:49;;;;;;;0.00;0.00;;;;;;;;;;5034192;28;20665;-77
2023/01/03 09:35:18;;;;;;;0.00;0.00;;;;;;;;;;5033446;28;20238;-77
2023/01/03 09:37:47;;;;;;;0.00;0.00;;;;;;;;;;5036884;28;20240;-77
2023/01/03 09:40:16;;;;;;;0.00;0.00;;;;;;;;;;5037855;28;20208;-77
2023/01/03 09:45:34;;;;;;;0.00;0.00;;;;;;;;;;5037740;28;20673;-77
2023/01/03 09:48:04;;;;;;;0.00;0.00;;;;;;;;;;5037170;28;20227;-77
2023/01/03 09:50:35;;;;;;;0.00;0.00;;;;;;;;;;5038026;28;20196;-77
2023/01/03 10:04:58;;;;;;;0.00;0.00;;;;;;;;;;4995063;28;20217;-77
2023/01/03 10:07:33;;;;;;;0.00;0.00;;;;;;;;;;5030445;28;20270;-77
2023/01/03 10:10:03;;;;;;;0.00;0.00;;;;;;;;;;5037182;28;20187;-78
2023/01/03 10:12:44;;;;;;;0.00;0.00;;;;;;;;;;5036922;28;20187;-78
2023/01/03 10:15:19;;;;;;;0.00;0.00;;;;;;;;;;5037208;28;20311;-78
2023/01/03 10:17:55;;;;;;;0.00;0.00;;;;;;;;;;5036488;28;20223;-77
2023/01/03 10:20:27;;;;;;;0.00;0.00;;;;;;;;;;5036742;28;20222;-78
2023/01/03 10:23:00;;;;;;;0.00;0.00;;;;;;;;;;5036581;28;20242;-77
2023/01/03 10:25:29;;;;;;;0.00;0.00;;;;;;;;;;5036387;28;20269;-78
2023/01/03 10:28:01;;;;;;;0.00;0.00;;;;;;;;;;5037304;28;20747;-77
2023/01/03 10:30:34;;;;;;;0.00;0.00;;;;;;;;;;5037236;28;20246;-77
2023/01/03 10:33:11;;;;;;;0.00;0.00;;;;;;;;;;5036808;28;20188;-77
2023/01/03 10:35:40;;;;;;;0.00;0.00;;;;;;;;;;5036850;28;20184;-77
2023/01/03 10:38:08;;;;;;;0.00;0.00;;;;;;;;;;5036345;28;20278;-78
2023/01/03 10:40:38;;;;;;;0.00;0.00;;;;;;;;;;5036757;28;20415;-78
2023/01/03 10:43:10;;;;;;;0.00;0.00;;;;;;;;;;5036362;28;20239;-78
2023/01/03 10:45:50;;;;;;;0.00;0.00;;;;;;;;;;5036125;28;20220;-78
2023/01/03 10:48:20;;;;;;;0.00;0.00;;;;;;;;;;5035008;28;20194;-77
2023/01/03 10:50:49;;;;;;;0.00;0.00;;;;;;;;;;5036434;28;20212;-77
2023/01/03 10:53:20;;;;;;;0.00;0.00;;;;;;;;;;5036336;28;20211;-78
2023/01/03 10:55:50;;;;;;;0.00;0.00;;;;;;;;;;5036053;28;20234;-77
2023/01/03 10:58:22;;;;;;;0.00;0.00;;;;;;;;;;5035985;28;20208;-78
2023/01/03 11:00:50;;;;;;;0.00;0.00;;;;;;;;;;5036002;28;20188;-78
2023/01/03 11:03:21;;;;;;;0.00;0.00;;;;;;;;;;5035915;28;20219;-78
2023/01/03 11:05:50;;;;;;;0.00;0.00;;;;;;;;;;5035945;28;20212;-77
2023/01/03 11:08:20;;;;;;;0.00;0.00;;;;;;;;;;5035774;28;20611;-78
2023/01/03 11:10:50;;;;;;;0.00;0.00;;;;;;;;;;5036138;28;20204;-78
2023/01/03 11:13:34;;;;;;;0.00;0.00;;;;;;;;;;5035969;28;20623;-78
2023/01/03 11:16:03;;;;;;;0.00;0.00;;;;;;;;;;5036191;28;20185;-78
2023/01/03 11:18:33;;;;;;;0.00;0.00;;;;;;;;;;5036063;28;20200;-77
2023/01/03 11:21:09;;;;;;;0.00;0.00;;;;;;;;;;5036348;28;20365;-77
2023/01/03 11:23:51;;;;;;;0.00;0.00;;;;;;;;;;5034510;28;20192;-78
2023/01/03 11:26:25;;;;;;;0.00;0.00;;;;;;;;;;5035195;28;20316;-77
2023/01/03 11:29:01;;;;;;;0.00;0.00;;;;;;;;;;5035377;28;20278;-77
2023/01/03 11:31:40;;;;;;;0.00;0.00;;;;;;;;;;5035537;28;20279;-78
2023/01/03 11:34:19;;;;;;;0.00;0.00;;;;;;;;;;5035413;28;20247;-77
2023/01/03 11:36:49;;;;;;;0.00;0.00;;;;;;;;;;5035841;28;20227;-77
2023/01/03 11:39:27;;;;;;;0.00;0.00;;;;;;;;;;5035675;28;20184;-77
2023/01/03 11:42:02;;;;;;;0.00;0.00;;;;;;;;;;5034835;28;20187;-78
2023/01/03 11:44:50;;;;;;;0.00;0.00;;;;;;;;;;5034258;28;20232;-79
2023/01/03 11:47:23;;;;;;;0.00;0.00;;;;;;;;;;5034479;28;20277;-78
2023/01/03 11:50:02;;;;;;;0.00;0.00;;;;;;;;;;5041662;28;20187;-79
2023/01/03 11:52:34;;;;;;;0.00;0.00;;;;;;;;;;5054478;28;20238;-79
2023/01/03 11:55:20;;;;;;;0.00;0.00;;;;;;;;;;5054278;28;20188;-79
2023/01/03 11:57:52;;;;;;;0.00;0.00;;;;;;;;;;5048141;28;20754;-79
2023/01/03 12:00:26;;;;;;;0.00;0.00;;;;;;;;;;5029651;28;20557;-78
2023/01/03 12:03:12;;;;;;;0.00;0.00;;;;;;;;;;5034481;28;20266;-78
2023/01/03 12:05:43;;;;;;;0.00;0.00;;;;;;;;;;5034411;28;20231;-78
2023/01/03 12:08:20;;;;;;;0.00;0.00;;;;;;;;;;5033411;28;20203;-79
2023/01/03 12:10:52;;;;;;;0.00;0.00;;;;;;;;;;5025452;28;20653;-78
2023/01/03 12:13:24;;;;;;;0.00;0.00;;;;;;;;;;5023399;28;20210;-78
2023/01/03 12:16:02;;;;;;;0.00;0.00;;;;;;;;;;5034423;28;20614;-79
2023/01/03 12:18:37;;;;;;;0.00;0.00;;;;;;;;;;5034407;28;20684;-77
2023/01/03 12:21:11;;;;;;;0.00;0.00;;;;;;;;;;5033904;28;20184;-78
2023/01/03 12:23:42;;;;;;;0.00;0.00;;;;;;;;;;5034021;28;20207;-78
2023/01/03 12:26:13;;;;;;;0.00;0.00;;;;;;;;;;5033586;28;20277;-79
2023/01/03 12:28:42;;;;;;;0.00;0.00;;;;;;;;;;5033712;28;20208;-78
2023/01/03 12:31:18;;;;;;;0.00;0.00;;;;;;;;;;5016368;28;20258;-77
2023/01/03 12:33:49;;;;;;;0.10;0.10;;;;;;;;;;5033406;28;20199;-78
2023/01/03 12:36:26;;;;;;;0.00;0.00;;;;;;;;;;5033809;28;20596;-78
2023/01/03 12:39:00;;;;;;;0.00;0.00;;;;;;;;;;5034140;28;20188;-78
2023/01/03 12:41:31;;;;;;;0.00;0.00;;;;;;;;;;5033960;28;20191;-79
2023/01/03 12:44:02;;;;;;;0.00;0.00;;;;;;;;;;5033544;28;20657;-79
2023/01/03 12:46:32;;;;;;;0.00;0.00;;;;;;;;;;5033452;28;20231;-78
2023/01/03 12:49:06;;;;;;;0.00;0.00;;;;;;;;;;5015836;28;20235;-79
2023/01/03 12:51:36;;;;;;;0.00;0.00;;;;;;;;;;5022540;28;21005;-78
2023/01/03 12:54:08;;;;;;;0.00;0.00;;;;;;;;;;5032703;28;20203;-78
2023/01/03 12:56:46;;;;;;;0.00;0.00;;;;;;;;;;5037642;28;20230;-77
2023/01/03 12:59:23;;;;;;;0.00;0.00;;;;;;;;;;5033598;28;20191;-78
2023/01/03 13:01:55;;;;;;;0.00;0.00;;;;;;;;;;5033288;28;20207;-78
2023/01/03 13:04:26;;;;;;;0.00;0.00;;;;;;;;;;5033082;28;20307;-77
2023/01/03 13:07:00;;;;;;;0.00;0.00;;;;;;;;;;5032881;28;20566;-78
2023/01/03 13:09:30;;;;;;;0.00;0.00;;;;;;;;;;5023630;28;20207;-78
2023/01/03 13:12:03;;;;;;;0.00;0.00;;;;;;;;;;5026561;28;20223;-78
2023/01/03 13:14:50;;;;;;;0.00;0.00;;;;;;;;;;5033674;28;20604;-77
2023/01/03 13:17:20;;;;;;;0.10;0.10;;;;;;;;;;5033394;28;20258;-78
2023/01/03 13:19:52;;;;;;;0.00;0.00;;;;;;;;;;5033420;28;20230;-77
2023/01/03 13:22:36;;;;;;;0.10;0.10;;;;;;;;;;5033463;28;20199;-79
2023/01/03 13:25:23;;;;;;;0.00;0.00;;;;;;;;;;5033221;28;20226;-78
2023/01/03 13:27:51;;;;;;;0.00;0.00;;;;;;;;;;5033205;28;20259;-78
2023/01/03 13:30:22;;;;;;;0.00;0.00;;;;;;;;;;5033397;28;20204;-79
2023/01/03 13:32:52;;;;;;;0.07;0.07;;;;;;;;;;5032172;28;20235;-78
2023/01/03 13:35:32;;;;;;;0.00;0.00;;;;;;;;;;5040902;28;20696;-78
2023/01/03 13:38:17;;;;;;;0.00;0.00;;;;;;;;;;5053479;28;20277;-78
2023/01/03 13:40:53;;;;;;;0.00;0.00;;;;;;;;;;5029133;28;20629;-78
2023/01/03 13:43:43;;;;;;;0.00;0.00;;;;;;;;;;5023407;28;20203;-79
2023/01/03 13:46:20;;;;;;;0.00;0.00;;;;;;;;;;5032930;28;20231;-78
2023/01/03 13:48:53;;;;;;;0.00;0.00;;;;;;;;;;5025658;28;20231;-78
2023/01/03 13:51:36;;;;;;;0.00;0.00;;;;;;;;;;5013845;28;20316;-78
2023/01/03 13:54:25;;;;;;;0.00;0.00;;;;;;;;;;5013506;28;20708;-79
2023/01/03 13:56:58;;;;;;;0.00;0.00;;;;;;;;;;5025998;28;20269;-78
2023/01/03 13:59:29;;;;;;;0.00;0.00;;;;;;;;;;5033210;28;20231;-79
2023/01/03 14:02:01;;;;;;;0.00;0.00;;;;;;;;;;5033280;28;20231;-79
2023/01/03 14:04:47;;;;;;;0.00;0.00;;;;;;;;;;5031875;28;20641;-78
2023/01/03 14:07:39;;;;;;;0.00;0.00;;;;;;;;;;5031652;28;20635;-77
2023/01/03 14:10:16;;;;;;;0.00;0.00;;;;;;;;;;5031801;28;20184;-78
2023/01/03 14:12:55;;;;;;;0.00;0.00;;;;;;;;;;5031230;28;20203;-78
2023/01/03 14:15:25;;;;;;;0.00;0.00;;;;;;;;;;5031407;28;20219;-78
2023/01/03 14:17:55;;;;;;;0.00;0.00;;;;;;;;;;5031882;28;20266;-79
2023/01/03 14:20:27;;;;;;;0.00;0.00;;;;;;;;;;5031600;28;20722;-79
2023/01/03 14:22:56;;;;;;;0.00;0.00;;;;;;;;;;5031748;28;20523;-77
2023/01/03 14:25:34;;;;;;;0.00;0.00;;;;;;;;;;5035576;28;20672;-78
2023/01/03 14:28:03;;;;;;;0.00;0.00;;;;;;;;;;5035122;28;20219;-78
2023/01/03 14:30:32;;;;;;;0.00;0.00;;;;;;;;;;5035241;28;20623;-78
2023/01/03 14:33:01;;;;;;;0.00;0.00;;;;;;;;;;5032278;28;20612;-78
2023/01/03 14:35:34;;;;;;;0.00;0.00;;;;;;;;;;5035077;28;20289;-78
2023/01/03 14:38:02;;;;;;;0.00;0.00;;;;;;;;;;5035423;28;20263;-79
2023/01/03 14:40:35;;;;;;;0.00;0.00;;;;;;;;;;5033863;28;20239;-78
2023/01/03 14:43:04;;;;;;;0.00;0.00;;;;;;;;;;5036824;28;20208;-78
2023/01/03 14:45:33;;;;;;;0.00;0.00;;;;;;;;;;5034474;28;20253;-78
2023/01/03 14:48:01;;;;;;;0.00;0.00;;;;;;;;;;5034652;28;20278;-78
2023/01/03 14:50:32;;;;;;;0.00;0.00;;;;;;;;;;5034285;28;20247;-79
2023/01/03 14:53:04;;;;;;;0.00;0.00;;;;;;;;;;5034667;28;20585;-78
2023/01/03 14:55:33;;;;;;;0.00;0.00;;;;;;;;;;5033905;28;21066;-78
2023/01/03 14:58:05;;;;;;;0.00;0.00;;;;;;;;;;5050115;28;20215;-79
2023/01/03 15:00:36;;;;;;;0.00;0.00;;;;;;;;;;5054229;28;20196;-78
2023/01/03 15:03:04;;;;;;;0.00;0.00;;;;;;;;;;5055384;28;20258;-79
2023/01/03 15:05:34;;;;;;;0.00;0.00;;;;;;;;;;5054874;28;20203;-79
2023/01/03 15:08:10;;;;;;;0.00;0.00;;;;;;;;;;5054863;28;20269;-79
2023/01/03 15:10:43;;;;;;;0.00;0.00;;;;;;;;;;5055151;28;20256;-79
2023/01/03 15:13:17;;;;;;;0.00;0.00;;;;;;;;;;5054691;28;20194;-78
2023/01/03 15:15:46;;;;;;;0.00;0.00;;;;;;;;;;5053746;28;20206;-79
2023/01/03 15:18:14;;;;;;;0.00;0.00;;;;;;;;;;5053840;28;20199;-78
2023/01/03 15:20:50;;;;;;;0.00;0.00;;;;;;;;;;5053873;28;20679;-78
2023/01/03 15:23:25;;;;;;;0.00;0.00;;;;;;;;;;5053542;28;20191;-78
2023/01/03 15:25:53;;;;;;;0.00;0.00;;;;;;;;;;5053506;28;20697;-78
2023/01/03 15:28:26;;;;;;;0.00;0.00;;;;;;;;;;5052794;28;20250;-79
2023/01/03 15:30:55;;;;;;;0.00;0.00;;;;;;;;;;5053353;28;20183;-78
2023/01/03 15:33:31;;;;;;;0.00;0.00;;;;;;;;;;5054790;28;20203;-79
2023/01/03 15:36:03;;;;;;;0.00;0.00;;;;;;;;;;5054366;28;20640;-79
2023/01/03 15:38:33;;;;;;;0.00;0.00;;;;;;;;;;5054671;28;20213;-78
2023/01/03 15:41:02;;;;;;;0.00;0.00;;;;;;;;;;5054671;28;20187;-79
2023/01/03 15:43:32;;;;;;;0.00;0.00;;;;;;;;;;5054322;28;20211;-80
2023/01/03 15:46:02;;;;;;;0.00;0.00;;;;;;;;;;5052818;28;20632;-80
2023/01/03 15:48:33;;;;;;;0.00;0.00;;;;;;;;;;5053535;28;20203;-80
2023/01/03 15:51:03;;;;;;;0.00;0.00;;;;;;;;;;5053865;28;20698;-80
2023/01/03 15:53:33;;;;;;;0.00;0.00;;;;;;;;;;5053843;28;20199;-80
2023/01/03 15:56:15;;;;;;;0.00;0.00;;;;;;;;;;5053466;28;20229;-80
2023/01/03 15:58:45;;;;;;;0.00;0.00;;;;;;;;;;5054150;28;20210;-80
2023/01/03 16:01:13;;;;;;;0.00;0.00;;;;;;;;;;5053403;28;20211;-81
2023/01/03 16:03:42;;;;;;;0.00;0.00;;;;;;;;;;5051850;28;20618;-81
2023/01/03 16:06:11;;;;;;;0.00;0.00;;;;;;;;;;5053247;28;20227;-80
2023/01/03 16:08:40;;;;;;;0.00;0.00;;;;;;;;;;5053267;28;20219;-80
2023/01/03 16:11:13;;;;;;;0.00;0.00;;;;;;;;;;5053344;28;20253;-80
2023/01/03 16:13:50;;;;;;;0.00;0.00;;;;;;;;;;5053181;28;20227;-80
2023/01/03 16:16:21;;;;;;;0.00;0.00;;;;;;;;;;5053158;28;20223;-80